Time;durP1;ratioP1;P1;durP2;ratioP2;P2;SDS_P1;SDS_P2;PMS_P1;PMS_P2;Temp;Humidity;BMP_temperature;BMP_pressure;BME280_temperature;BME280_humidity;BME280_pressure;Samples;Min_cycle;Max_cycle;Signal;HPM_P1;HPM_P2
2022/04/21 00:02:20;;;;;;;2.93;2.73;;;11.30;48.40;11.40;95833.00;;;;5053167;28;20205;-83
2022/04/21 00:04:47;;;;;;;3.03;2.47;;;11.20;48.60;11.30;95829.00;;;;5052800;28;20271;-83
2022/04/21 00:07:14;;;;;;;3.20;2.90;;;11.20;48.70;11.30;95823.00;;;;5053503;28;20259;-83
2022/04/21 00:09:41;;;;;;;4.43;2.67;;;11.20;48.70;11.20;95819.00;;;;5038321;28;20295;-83
2022/04/21 00:12:10;;;;;;;2.90;2.70;;;11.10;48.80;11.20;95826.00;;;;5033220;28;20292;-83
2022/04/21 00:14:39;;;;;;;3.60;2.97;;;11.10;48.90;11.10;95829.00;;;;5033190;28;20190;-83
2022/04/21 00:17:08;;;;;;;3.87;2.80;;;11.00;48.90;11.10;95817.00;;;;5033491;28;20255;-83
2022/04/21 00:19:36;;;;;;;2.73;2.53;;;11.00;49.00;11.00;95820.00;;;;5033153;28;20193;-83
2022/04/21 00:24:48;;;;;;;3.20;2.90;;;10.90;49.20;10.90;95819.00;;;;5044921;28;20688;-83
2022/04/21 00:27:16;;;;;;;2.90;2.57;;;10.90;49.20;10.90;95815.00;;;;5053269;28;20301;-84
2022/04/21 00:29:45;;;;;;;2.67;2.47;;;10.80;49.30;10.80;95817.00;;;;5053147;28;20464;-83
2022/04/21 00:32:12;;;;;;;4.67;2.80;;;10.80;49.60;10.80;95813.00;;;;5052931;28;20240;-83
2022/04/21 00:34:39;;;;;;;2.90;2.50;;;10.70;49.60;10.80;95807.00;;;;5052284;28;20671;-83
2022/04/21 00:37:06;;;;;;;3.00;2.80;;;10.70;49.60;10.70;95809.00;;;;5052771;28;20223;-83
2022/04/21 00:39:33;;;;;;;2.73;2.50;;;10.60;49.60;10.70;95814.00;;;;5038967;28;20296;-83
2022/04/21 00:42:02;;;;;;;2.90;2.70;;;10.50;49.60;10.60;95806.00;;;;5032704;28;20197;-82
2022/04/21 00:44:31;;;;;;;2.77;2.57;;;10.50;49.80;10.60;95806.00;;;;5032444;28;20197;-83
2022/04/21 00:47:05;;;;;;;3.00;2.80;;;10.50;50.00;10.50;95802.00;;;;5032651;28;20673;-81
2022/04/21 00:49:33;;;;;;;2.93;2.63;;;10.50;50.20;10.50;95801.00;;;;5032677;28;20197;-83
2022/04/21 00:52:03;;;;;;;2.90;2.70;;;10.40;50.20;10.40;95799.00;;;;5032125;28;20292;-83
2022/04/21 00:54:33;;;;;;;2.80;2.60;;;10.40;50.30;10.40;95799.00;;;;5042228;28;20291;-84
2022/04/21 00:57:01;;;;;;;2.73;2.50;;;10.30;50.50;10.30;95793.00;;;;5052016;28;20307;-83
2022/04/21 00:59:28;;;;;;;2.70;2.50;;;10.20;50.50;10.30;95787.00;;;;5052916;28;20231;-83
2022/04/21 01:04:46;;;;;;;2.80;2.60;;;10.20;51.00;10.20;95798.00;;;;5047180;28;20977;-82
2022/04/21 01:07:13;;;;;;;3.17;2.90;;;10.10;51.10;10.00;95796.00;;;;5029871;28;20299;-83
2022/04/21 01:09:40;;;;;;;3.20;2.87;;;10.10;51.00;10.00;95784.00;;;;5031870;28;20228;-83
2022/04/21 01:12:10;;;;;;;2.87;2.67;;;10.00;51.00;9.90;95788.00;;;;5031168;28;20223;-83
2022/04/21 01:14:38;;;;;;;2.93;2.63;;;9.90;51.10;9.90;95785.00;;;;5031612;28;20208;-82
2022/04/21 01:17:05;;;;;;;2.83;2.63;;;9.90;51.00;9.80;95778.00;;;;5030592;28;20222;-84
2022/04/21 01:19:33;;;;;;;2.83;2.63;;;9.90;51.20;9.80;95790.00;;;;5033113;28;20266;-84
2022/04/21 01:22:02;;;;;;;4.37;2.90;;;9.80;51.30;9.80;95785.00;;;;5030905;28;20292;-83
2022/04/21 01:24:29;;;;;;;3.30;3.03;;;9.80;51.50;9.70;95777.00;;;;5041751;28;20628;-82
2022/04/21 01:26:58;;;;;;;3.27;2.97;;;9.70;51.40;9.70;95779.00;;;;5051751;28;20315;-83
2022/04/21 01:29:27;;;;;;;3.07;2.60;;;9.60;51.50;9.70;95786.00;;;;5053059;28;20654;-83
2022/04/21 01:31:55;;;;;;;3.17;2.87;;;9.60;51.60;9.60;95784.00;;;;5052918;28;20207;-83
2022/04/21 01:34:22;;;;;;;2.73;2.53;;;9.60;51.90;9.60;95778.00;;;;5052653;28;20711;-83
2022/04/21 01:42:22;;;;;;;2.70;2.50;;;9.50;52.30;9.50;95769.00;;;;5033036;28;20212;-83
2022/04/21 01:44:49;;;;;;;3.27;2.97;;;9.40;52.30;9.50;95766.00;;;;5032347;28;20247;-83
2022/04/21 01:47:16;;;;;;;3.77;3.47;;;9.30;52.60;9.50;95760.00;;;;5033079;28;20644;-84
2022/04/21 01:49:44;;;;;;;3.70;3.40;;;9.40;52.90;9.40;95766.00;;;;5032765;28;20205;-83
2022/04/21 01:52:11;;;;;;;2.87;2.60;;;9.40;53.00;9.40;95762.00;;;;5032565;28;20225;-83
2022/04/21 01:54:40;;;;;;;2.87;2.63;;;9.30;53.00;9.30;95754.00;;;;5043750;28;20208;-82
2022/04/21 01:57:07;;;;;;;3.00;2.33;;;9.30;53.10;9.40;95759.00;;;;5052115;28;20354;-83
2022/04/21 01:59:34;;;;;;;3.20;3.00;;;9.30;53.10;9.40;95761.00;;;;5052220;28;20648;-83
2022/04/21 02:02:01;;;;;;;2.97;2.67;;;9.30;53.20;9.40;95752.00;;;;5052161;28;20250;-83
2022/04/21 02:04:28;;;;;;;3.33;2.80;;;9.30;53.30;9.40;95750.00;;;;5052046;28;20682;-83
2022/04/21 02:06:55;;;;;;;3.37;3.07;;;9.30;53.40;9.50;95755.00;;;;5052332;28;20228;-83
2022/04/21 02:09:22;;;;;;;3.13;2.90;;;9.40;53.60;9.50;95754.00;;;;5040013;28;20213;-83
2022/04/21 02:11:51;;;;;;;2.97;2.77;;;9.30;53.60;9.50;95754.00;;;;5031849;28;20209;-81
2022/04/21 02:14:18;;;;;;;3.77;3.07;;;9.40;53.80;9.50;95752.00;;;;5031340;28;20197;-83
2022/04/21 02:16:45;;;;;;;3.17;2.93;;;9.40;53.80;9.50;95752.00;;;;5032568;28;20217;-82
2022/04/21 02:19:12;;;;;;;3.27;2.97;;;9.50;53.90;9.50;95754.00;;;;5032075;28;20205;-83
2022/04/21 02:21:39;;;;;;;3.27;3.07;;;9.40;53.80;9.50;95748.00;;;;5029919;28;20216;-82
2022/04/21 02:24:07;;;;;;;3.10;2.90;;;9.40;53.80;9.50;95753.00;;;;5031693;28;20239;-83
2022/04/21 02:26:34;;;;;;;3.40;3.07;;;9.40;53.90;9.50;95745.00;;;;5031989;28;20295;-83
2022/04/21 02:29:03;;;;;;;3.43;2.70;;;9.40;54.00;9.50;95756.00;;;;5031745;28;20201;-83
2022/04/21 02:31:30;;;;;;;3.30;2.80;;;9.40;54.10;9.50;95749.00;;;;5032377;28;20618;-83
2022/04/21 02:33:57;;;;;;;3.50;3.07;;;9.40;54.10;9.50;95749.00;;;;5031903;28;20255;-83
2022/04/21 02:36:24;;;;;;;3.57;3.13;;;9.50;54.20;9.50;95747.00;;;;5031550;28;20221;-83
2022/04/21 02:38:51;;;;;;;3.10;2.90;;;9.50;54.20;9.60;95743.00;;;;5031922;28;20288;-83
2022/04/21 02:41:18;;;;;;;3.57;3.10;;;9.50;54.30;9.60;95733.00;;;;5031868;28;20304;-83
2022/04/21 02:43:45;;;;;;;3.83;3.27;;;9.50;54.40;9.60;95729.00;;;;5031791;28;20232;-83
2022/04/21 02:46:14;;;;;;;3.60;3.23;;;9.50;54.50;9.60;95729.00;;;;5031706;28;20665;-83
2022/04/21 02:48:42;;;;;;;4.80;3.40;;;9.50;54.60;9.60;95736.00;;;;5031589;28;20717;-83
2022/04/21 02:51:11;;;;;;;3.33;3.10;;;9.50;54.60;9.70;95736.00;;;;5030747;28;20239;-83
2022/04/21 02:59:08;;;;;;;4.47;3.30;;;9.60;54.80;9.70;95731.00;;;;5054220;28;20199;-83
2022/04/21 03:01:37;;;;;;;3.87;3.47;;;9.60;54.80;9.80;95740.00;;;;5055646;28;20216;-83
2022/04/21 03:04:04;;;;;;;3.93;3.13;;;9.60;55.10;9.90;95743.00;;;;5052955;28;20199;-83
2022/04/21 03:06:31;;;;;;;3.67;3.37;;;9.70;55.20;9.90;95738.00;;;;5052279;28;20299;-83
2022/04/21 03:08:58;;;;;;;4.17;3.40;;;9.60;55.20;10.00;95740.00;;;;5033411;28;20815;-82
2022/04/21 03:11:26;;;;;;;3.47;3.17;;;9.80;55.40;10.00;95736.00;;;;5035775;28;20283;-83
2022/04/21 03:13:53;;;;;;;5.20;3.67;;;9.80;55.30;10.10;95742.00;;;;5034234;28;20201;-83
2022/04/21 03:16:21;;;;;;;3.63;3.30;;;9.80;55.30;10.10;95737.00;;;;5035333;28;20312;-82
2022/04/21 03:18:49;;;;;;;3.63;3.33;;;9.90;55.40;10.20;95732.00;;;;5035070;28;20243;-83
2022/04/21 03:26:46;;;;;;;4.13;3.63;;;10.10;55.40;10.40;95732.00;;;;5055111;28;20239;-83
2022/04/21 03:29:13;;;;;;;3.60;3.30;;;10.10;55.40;10.40;95727.00;;;;5054142;28;20273;-83
2022/04/21 03:31:42;;;;;;;4.27;3.87;;;10.10;55.40;10.40;95728.00;;;;5054989;28;20196;-83
2022/04/21 03:34:14;;;;;;;4.07;3.67;;;10.20;55.40;10.50;95720.00;;;;5054582;28;20208;-83
2022/04/21 03:36:45;;;;;;;4.10;3.70;;;10.20;55.60;10.50;95728.00;;;;5054837;28;20217;-83
2022/04/21 03:39:12;;;;;;;4.00;3.63;;;10.30;55.70;10.50;95728.00;;;;5055481;28;20232;-84
2022/04/21 03:41:39;;;;;;;5.33;4.07;;;10.30;55.60;10.60;95730.00;;;;5055152;28;20269;-83
2022/04/21 03:44:07;;;;;;;4.13;3.73;;;10.40;55.70;10.60;95728.00;;;;5054851;28;20279;-83
2022/04/21 03:46:34;;;;;;;4.50;4.10;;;10.40;55.60;10.60;95725.00;;;;5054186;28;20268;-82
2022/04/21 03:49:01;;;;;;;3.90;3.60;;;10.50;55.70;10.70;95719.00;;;;5054359;28;20228;-82
2022/04/21 03:51:31;;;;;;;4.63;4.23;;;10.50;55.60;10.70;95714.00;;;;5056130;28;20204;-83
2022/04/21 03:53:58;;;;;;;4.10;3.70;;;10.50;55.60;10.70;95711.00;;;;5055554;28;20573;-83
2022/04/21 03:56:26;;;;;;;4.50;4.10;;;10.50;56.20;10.80;95714.00;;;;5055568;28;20308;-83
2022/04/21 03:58:53;;;;;;;4.30;4.00;;;10.60;55.80;10.80;95720.00;;;;5056211;28;20575;-83
2022/04/21 04:01:20;;;;;;;4.20;3.90;;;10.60;55.80;10.90;95718.00;;;;5052102;28;20254;-83
2022/04/21 04:03:48;;;;;;;4.63;4.23;;;10.70;55.90;10.90;95703.00;;;;5035118;28;20224;-83
2022/04/21 04:11:46;;;;;;;4.33;3.93;;;10.80;56.00;11.00;95710.00;;;;5054423;28;20211;-83
2022/04/21 04:14:13;;;;;;;4.13;3.83;;;10.80;55.90;11.10;95705.00;;;;5054370;28;20208;-83
2022/04/21 04:16:41;;;;;;;5.77;4.03;;;10.80;56.00;11.10;95708.00;;;;5054079;28;20302;-83
2022/04/21 04:19:09;;;;;;;4.23;3.93;;;10.90;56.10;11.10;95707.00;;;;5054282;28;20291;-83
2022/04/21 04:21:36;;;;;;;4.10;3.80;;;10.90;56.00;11.20;95711.00;;;;5054290;28;20204;-84
2022/04/21 04:24:07;;;;;;;4.20;3.90;;;10.90;56.00;11.20;95706.00;;;;5054088;28;20807;-83
2022/04/21 04:26:35;;;;;;;4.30;4.00;;;11.00;56.20;11.30;95714.00;;;;5054192;28;20308;-83
2022/04/21 04:29:03;;;;;;;4.17;3.87;;;11.00;56.10;11.30;95716.00;;;;5054003;28;20374;-84
2022/04/21 04:31:33;;;;;;;4.50;4.10;;;11.00;56.10;11.30;95706.00;;;;5054033;28;20200;-83
2022/04/21 04:34:00;;;;;;;4.30;4.00;;;11.10;56.40;11.40;95708.00;;;;5053164;28;20255;-83
2022/04/21 04:36:28;;;;;;;4.30;4.00;;;11.10;56.10;11.40;95718.00;;;;5052318;28;20219;-83
2022/04/21 04:38:55;;;;;;;4.20;3.90;;;11.10;56.30;11.50;95723.00;;;;5054381;28;20216;-83
2022/04/21 04:44:09;;;;;;;4.90;4.50;;;11.20;56.50;11.50;95720.00;;;;5053897;28;20195;-83
2022/04/21 04:46:35;;;;;;;4.77;4.37;;;11.20;56.50;11.60;95719.00;;;;5053735;28;20212;-83
2022/04/21 04:49:04;;;;;;;4.43;4.03;;;11.30;56.70;11.70;95723.00;;;;5053748;28;20274;-83
2022/04/21 04:51:31;;;;;;;4.77;4.37;;;11.30;56.70;11.70;95718.00;;;;5053802;28;20200;-83
2022/04/21 04:53:58;;;;;;;4.70;4.30;;;11.40;56.70;11.80;95725.00;;;;5048396;28;20201;-83
2022/04/21 04:56:28;;;;;;;4.67;4.37;;;11.40;56.70;11.80;95726.00;;;;5033596;28;20225;-82
2022/04/21 04:58:55;;;;;;;4.87;4.47;;;11.40;56.70;11.80;95723.00;;;;5034405;28;20555;-83
2022/04/21 05:01:31;;;;;;;5.67;4.23;;;11.50;56.70;11.90;95725.00;;;;5033950;28;20205;-83
2022/04/21 05:04:06;;;;;;;4.50;4.20;;;11.50;57.00;11.90;95716.00;;;;5033607;28;20283;-82
2022/04/21 05:06:38;;;;;;;4.60;4.20;;;11.60;57.50;12.00;95723.00;;;;5033469;28;20272;-82
2022/04/21 05:09:09;;;;;;;4.73;4.33;;;11.60;56.80;12.00;95728.00;;;;5043432;28;20323;-83
2022/04/21 05:11:38;;;;;;;4.43;4.03;;;11.70;56.70;12.10;95731.00;;;;5053058;28;20201;-82
2022/04/21 05:14:07;;;;;;;4.43;4.13;;;11.70;56.70;12.10;95723.00;;;;5053538;28;20203;-81
2022/04/21 05:16:36;;;;;;;4.80;4.40;;;11.70;56.70;12.20;95731.00;;;;5053529;28;20719;-82
2022/04/21 05:19:05;;;;;;;4.50;4.10;;;11.80;56.90;12.20;95723.00;;;;5053675;28;20192;-83
2022/04/21 05:21:34;;;;;;;4.37;4.07;;;11.80;56.80;12.20;95733.00;;;;5052389;28;20192;-82
2022/04/21 05:24:03;;;;;;;4.90;4.60;;;11.80;56.80;12.30;95731.00;;;;5048018;28;20232;-84
2022/04/21 05:26:32;;;;;;;4.10;3.80;;;11.90;56.80;12.40;95730.00;;;;5033041;28;20244;-82
2022/04/21 05:30:55;;;;;;;4.97;4.57;;;12.00;56.90;12.50;95730.00;;;;5033449;28;20245;-83
2022/04/21 05:31:54;;;;;;;4.83;4.47;;;12.00;56.90;12.50;95733.00;;;;5029954;28;20265;-82
2022/04/21 05:34:22;;;;;;;4.97;4.57;;;12.00;56.80;12.60;95733.00;;;;5029411;28;20220;-82
2022/04/21 05:36:50;;;;;;;5.03;4.63;;;12.10;56.70;12.70;95728.00;;;;5030799;28;20275;-84
2022/04/21 05:39:18;;;;;;;4.87;4.47;;;12.20;56.90;12.70;95737.00;;;;5041921;28;20232;-83
2022/04/21 05:41:46;;;;;;;5.87;4.90;;;12.20;56.70;12.80;95735.00;;;;5050264;28;20196;-84
2022/04/21 05:44:16;;;;;;;4.73;4.33;;;12.20;56.70;12.90;95735.00;;;;5049783;28;20631;-84
2022/04/21 05:46:44;;;;;;;4.57;4.20;;;12.30;56.70;12.90;95736.00;;;;5053263;28;20221;-83
2022/04/21 05:49:12;;;;;;;5.57;5.03;;;12.30;56.70;13.00;95732.00;;;;5052876;28;20225;-83
2022/04/21 05:51:42;;;;;;;4.37;4.03;;;12.40;56.70;13.10;95732.00;;;;5052713;28;20259;-83
2022/04/21 05:54:10;;;;;;;5.33;4.20;;;12.50;56.60;13.20;95733.00;;;;5052328;28;20212;-83
2022/04/21 05:56:37;;;;;;;4.90;4.43;;;12.50;56.60;13.30;95732.00;;;;5053031;28;20256;-83
2022/04/21 05:59:05;;;;;;;4.87;4.47;;;12.60;56.50;13.30;95736.00;;;;5052981;28;20675;-82
2022/04/21 06:01:34;;;;;;;4.90;4.50;;;12.70;56.40;13.40;95731.00;;;;5052482;28;20201;-84
2022/04/21 06:04:01;;;;;;;4.90;4.50;;;12.70;56.30;13.50;95732.00;;;;5052815;28;20251;-84
2022/04/21 06:06:28;;;;;;;4.93;4.53;;;12.80;56.20;13.50;95720.00;;;;5051840;28;20243;-84
2022/04/21 06:08:55;;;;;;;4.93;4.43;;;12.90;56.10;13.60;95723.00;;;;5053150;28;20315;-84
2022/04/21 06:11:24;;;;;;;4.90;4.50;;;12.90;55.90;13.70;95723.00;;;;5051639;28;20193;-85
2022/04/21 06:13:51;;;;;;;4.77;4.37;;;13.00;55.80;13.80;95726.00;;;;5050502;28;20203;-83
2022/04/21 06:16:19;;;;;;;4.77;4.27;;;13.10;55.70;13.90;95709.00;;;;5051617;28;20697;-84
2022/04/21 06:18:47;;;;;;;4.97;4.50;;;13.20;55.80;14.00;95724.00;;;;5052604;28;20200;-84
2022/04/21 06:21:15;;;;;;;5.00;4.50;;;13.20;55.80;14.10;95723.00;;;;5052668;28;20266;-84
2022/04/21 06:23:42;;;;;;;4.30;3.90;;;13.30;55.50;14.20;95722.00;;;;5042544;28;20209;-84
2022/04/21 06:26:10;;;;;;;4.30;3.90;;;13.40;55.40;14.20;95721.00;;;;5052194;28;20212;-85
2022/04/21 06:28:37;;;;;;;4.33;4.00;;;13.50;55.10;14.30;95722.00;;;;5052022;28;20266;-83
2022/04/21 06:31:05;;;;;;;4.20;3.80;;;13.60;54.90;14.40;95727.00;;;;5052330;28;20204;-82
2022/04/21 06:33:32;;;;;;;4.53;4.23;;;13.60;54.70;14.50;95723.00;;;;5052219;28;20192;-82
2022/04/21 06:36:02;;;;;;;4.13;3.80;;;13.70;54.10;14.60;95732.00;;;;5052242;28;20303;-83
2022/04/21 06:38:29;;;;;;;4.63;4.23;;;13.80;53.90;14.70;95733.00;;;;5052682;28;20669;-82
2022/04/21 06:40:56;;;;;;;6.03;4.10;;;13.90;53.90;14.80;95736.00;;;;5052600;28;20291;-83
2022/04/21 06:48:53;;;;;;;4.30;3.77;;;14.10;53.30;15.00;95735.00;;;;5032511;28;20262;-84
2022/04/21 06:51:22;;;;;;;4.63;4.00;;;14.20;53.20;15.10;95735.00;;;;5032533;28;20225;-84
2022/04/21 06:53:49;;;;;;;3.97;3.67;;;14.30;53.20;15.20;95731.00;;;;5035730;28;20207;-83
2022/04/21 06:56:16;;;;;;;4.20;3.87;;;14.30;53.00;15.20;95739.00;;;;5051881;28;20756;-83
2022/04/21 06:58:43;;;;;;;4.47;4.07;;;14.50;53.00;15.30;95735.00;;;;5051285;28;20291;-84
2022/04/21 07:01:11;;;;;;;4.20;3.87;;;14.50;52.80;15.40;95736.00;;;;5052588;28;20193;-82
2022/04/21 07:03:38;;;;;;;4.67;4.20;;;14.60;52.50;15.40;95739.00;;;;5052793;28;20235;-84
2022/04/21 07:06:05;;;;;;;4.77;4.37;;;14.60;52.20;15.40;95737.00;;;;5051211;28;20212;-82
2022/04/21 07:08:34;;;;;;;4.30;3.90;;;14.70;52.10;15.50;95741.00;;;;5051115;28;20231;-83
2022/04/21 07:11:01;;;;;;;4.63;4.03;;;14.80;52.10;15.50;95742.00;;;;5052132;28;20584;-83
2022/04/21 07:13:28;;;;;;;4.30;3.90;;;14.80;51.90;15.50;95747.00;;;;5052779;28;20275;-84
2022/04/21 07:15:55;;;;;;;4.80;4.40;;;14.90;51.80;15.60;95746.00;;;;5052392;28;20221;-84
2022/04/21 07:18:22;;;;;;;4.60;4.30;;;14.90;51.70;15.60;95745.00;;;;5052369;28;20657;-83
2022/04/21 07:20:49;;;;;;;4.73;4.30;;;15.00;51.60;15.60;95745.00;;;;5051344;28;20189;-84
2022/04/21 07:23:16;;;;;;;4.50;4.10;;;15.00;51.50;15.60;95748.00;;;;5052356;28;20232;-84
2022/04/21 07:25:46;;;;;;;4.50;4.13;;;15.00;51.40;15.70;95752.00;;;;5052026;28;20575;-84
2022/04/21 07:28:13;;;;;;;4.33;4.03;;;15.10;51.20;15.70;95746.00;;;;5052478;28;20307;-84
2022/04/21 07:30:40;;;;;;;4.73;4.33;;;15.10;51.20;15.70;95750.00;;;;5052446;28;20193;-84
2022/04/21 07:33:08;;;;;;;4.77;4.37;;;15.10;51.00;15.80;95752.00;;;;5052420;28;20282;-84
2022/04/21 07:35:35;;;;;;;4.93;4.53;;;15.20;51.00;15.80;95755.00;;;;5050656;28;20307;-85
2022/04/21 07:38:02;;;;;;;4.73;4.37;;;15.20;50.90;16.00;95747.00;;;;5051690;28;20204;-84
2022/04/21 07:40:29;;;;;;;4.20;3.90;;;15.30;51.00;16.10;95749.00;;;;5036149;28;20229;-83
2022/04/21 07:42:59;;;;;;;4.97;4.23;;;15.40;51.10;16.10;95750.00;;;;5031864;28;20277;-83
2022/04/21 07:45:27;;;;;;;4.70;4.33;;;15.40;51.00;16.30;95741.00;;;;5034323;28;20217;-84
2022/04/21 07:47:54;;;;;;;4.67;4.27;;;15.50;51.10;16.40;95747.00;;;;5044392;28;20224;-84
2022/04/21 07:50:24;;;;;;;4.77;3.87;;;15.60;51.00;16.50;95750.00;;;;5040363;28;20670;-83
2022/04/21 07:55:36;;;;;;;4.40;4.10;;;15.90;50.70;16.90;95752.00;;;;5043629;28;20227;-82
2022/04/21 07:58:05;;;;;;;4.73;4.33;;;16.00;50.70;17.00;95742.00;;;;5046617;28;20646;-84
2022/04/21 08:00:34;;;;;;;4.73;4.33;;;16.20;50.70;17.20;95752.00;;;;5068192;22;20233;-80
2022/04/21 08:03:03;;;;;;;4.63;4.27;;;16.30;50.40;17.50;95750.00;;;;5043855;28;20203;-80
2022/04/21 08:05:30;;;;;;;4.53;4.13;;;16.50;50.40;17.60;95753.00;;;;5049969;28;20196;-82
2022/04/21 08:07:58;;;;;;;4.80;4.43;;;16.60;50.10;17.90;95750.00;;;;5048259;28;20193;-81
2022/04/21 08:10:27;;;;;;;4.60;4.20;;;16.80;49.50;18.10;95756.00;;;;5054955;28;20231;-82
2022/04/21 08:12:58;;;;;;;4.97;4.57;;;16.90;49.60;18.30;95760.00;;;;5047023;28;20251;-82
2022/04/21 08:15:29;;;;;;;4.67;4.27;;;17.10;49.20;18.50;95758.00;;;;5038426;28;20619;-80
2022/04/21 08:17:59;;;;;;;4.70;4.37;;;17.30;49.10;18.70;95768.00;;;;5043044;28;20275;-81
2022/04/21 08:20:29;;;;;;;4.17;3.87;;;17.50;49.00;18.90;95762.00;;;;5050558;28;20190;-81
2022/04/21 08:22:56;;;;;;;4.20;3.80;;;17.60;48.50;19.10;95763.00;;;;5049311;28;20553;-79
2022/04/21 08:33:49;;;;;;;4.37;4.07;;;18.20;47.80;19.70;95765.00;;;;5030398;28;20251;-80
2022/04/21 08:36:17;;;;;;;4.57;4.27;;;18.40;48.30;19.90;95762.00;;;;5054363;28;20203;-80
2022/04/21 08:38:44;;;;;;;4.93;4.30;;;18.60;47.30;20.20;95761.00;;;;5047980;28;20213;-80
2022/04/21 08:41:20;;;;;;;4.53;4.17;;;18.70;47.30;20.50;95766.00;;;;5034181;28;20244;-80
2022/04/21 08:43:48;;;;;;;4.80;4.40;;;19.00;47.40;20.90;95765.00;;;;5035850;28;20287;-80
2022/04/21 08:46:20;;;;;;;4.20;3.90;;;19.20;46.90;21.30;95761.00;;;;5045667;28;20430;-80
2022/04/21 08:48:51;;;;;;;4.00;3.70;;;19.60;46.90;21.80;95764.00;;;;5053822;28;20215;-80
2022/04/21 08:51:20;;;;;;;3.97;3.67;;;20.00;47.20;22.30;95769.00;;;;5054220;28;20219;-81
2022/04/21 08:53:47;;;;;;;4.47;3.87;;;20.40;47.00;22.70;95768.00;;;;5054506;28;20201;-80
2022/04/21 08:56:14;;;;;;;4.37;3.97;;;20.90;46.40;23.00;95772.00;;;;5042436;28;20208;-81
2022/04/21 08:58:41;;;;;;;3.80;3.50;;;21.30;45.00;23.30;95759.00;;;;5034551;28;20686;-81
2022/04/21 09:01:09;;;;;;;4.43;4.03;;;21.70;45.00;23.60;95768.00;;;;5046200;28;20228;-80
2022/04/21 09:03:38;;;;;;;4.47;4.07;;;22.00;44.50;23.90;95773.00;;;;5054777;28;20193;-81
2022/04/21 09:06:05;;;;;;;5.23;3.97;;;22.30;43.60;24.20;95776.00;;;;5055485;28;20202;-80
2022/04/21 09:08:34;;;;;;;4.70;4.40;;;22.60;43.40;24.50;95770.00;;;;5054801;28;20215;-81
2022/04/21 09:11:06;;;;;;;4.77;4.37;;;22.80;42.60;24.80;95771.00;;;;5052252;28;20212;-81
2022/04/21 09:13:39;;;;;;;3.67;3.37;;;23.10;41.60;25.10;95777.00;;;;5035549;28;20205;-80
2022/04/21 09:16:09;;;;;;;4.00;3.70;;;23.40;41.80;25.30;95777.00;;;;5035033;28;20201;-82
2022/04/21 09:18:42;;;;;;;3.33;3.13;;;23.60;41.70;25.60;95775.00;;;;5036019;28;20207;-82
2022/04/21 09:21:14;;;;;;;3.90;3.60;;;24.00;41.20;25.80;95784.00;;;;5036955;28;20212;-79
2022/04/21 09:23:42;;;;;;;4.47;4.07;;;24.30;41.30;26.10;95778.00;;;;5043012;28;20224;-80
2022/04/21 09:26:15;;;;;;;4.03;3.73;;;24.70;39.80;26.30;95781.00;;;;5042604;28;20197;-80
2022/04/21 09:28:43;;;;;;;3.63;3.33;;;25.20;39.70;26.60;95784.00;;;;5034890;28;20584;-81
2022/04/21 09:31:11;;;;;;;3.60;3.33;;;25.60;39.80;26.70;95780.00;;;;5039664;28;20215;-81
2022/04/21 09:33:41;;;;;;;3.93;3.47;;;26.00;39.30;26.90;95775.00;;;;5055299;28;20208;-80
2022/04/21 09:36:09;;;;;;;3.00;2.80;;;26.40;38.60;27.00;95768.00;;;;5055564;28;20197;-82
2022/04/21 09:38:37;;;;;;;3.60;3.30;;;26.80;38.30;27.10;95770.00;;;;5047642;28;20200;-82
2022/04/21 09:41:08;;;;;;;3.50;3.20;;;27.20;37.90;27.30;95777.00;;;;5053774;28;20216;-80
2022/04/21 09:43:38;;;;;;;3.20;3.00;;;27.50;37.00;27.40;95773.00;;;;5055160;28;20674;-80
2022/04/21 09:46:16;;;;;;;4.25;3.67;;;27.70;36.40;27.40;95770.00;;;;5053889;28;20720;-81
2022/04/21 09:48:46;;;;;;;4.93;3.28;;;28.00;35.30;27.40;95770.00;;;;5056405;28;20201;-81
2022/04/21 09:51:15;;;;;;;3.70;3.40;;;28.20;35.00;27.40;95764.00;;;;5055185;28;20227;-80
2022/04/21 09:53:53;;;;;;;3.60;3.40;;;28.30;34.60;27.40;95765.00;;;;5040038;28;20598;-81
2022/04/21 09:56:32;;;;;;;3.50;3.28;;;28.50;34.20;27.40;95758.00;;;;5044403;28;20258;-83
2022/04/21 09:59:00;;;;;;;3.35;3.15;;;28.60;33.80;27.50;95764.00;;;;5037160;28;20221;-83
2022/04/21 10:01:28;;;;;;;3.67;3.38;;;28.70;33.50;27.40;95763.00;;;;5037887;28;20228;-83
2022/04/21 10:03:58;;;;;;;3.60;3.30;;;28.80;33.50;27.40;95754.00;;;;5039518;28;20201;-82
2022/04/21 10:06:25;;;;;;;3.38;3.08;;;28.80;33.70;27.40;95755.00;;;;5037106;28;20223;-82
2022/04/21 10:08:52;;;;;;;3.53;3.33;;;28.90;33.70;27.40;95746.00;;;;5044202;28;20200;-82
2022/04/21 10:11:23;;;;;;;3.70;3.40;;;29.00;33.10;27.40;95746.00;;;;5058521;28;20322;-82
2022/04/21 10:13:54;;;;;;;3.65;3.30;;;29.00;32.80;27.40;95740.00;;;;5056219;28;20531;-83
2022/04/21 10:16:21;;;;;;;3.60;3.30;;;29.10;32.60;27.50;95736.00;;;;5058073;28;20204;-82
2022/04/21 10:18:51;;;;;;;3.50;3.20;;;29.10;32.60;27.50;95734.00;;;;5039242;28;20208;-82
2022/04/21 10:21:29;;;;;;;3.13;2.92;;;29.10;32.20;27.40;95738.00;;;;5042851;28;20217;-82
2022/04/21 10:24:00;;;;;;;4.15;3.75;;;29.10;32.00;27.40;95732.00;;;;5043714;28;20207;-83
2022/04/21 10:26:40;;;;;;;3.25;3.05;;;29.00;30.90;27.30;95730.00;;;;5047095;28;20204;-82
2022/04/21 10:29:12;;;;;;;3.53;3.22;;;29.00;31.20;27.20;95726.00;;;;5037925;28;20641;-82
2022/04/21 10:31:54;;;;;;;3.53;3.22;;;28.90;30.20;27.10;95717.00;;;;5039496;28;20224;-81
2022/04/21 10:34:34;;;;;;;3.38;3.17;;;28.80;30.20;26.90;95717.00;;;;5039127;28;20197;-82
2022/04/21 10:37:17;;;;;;;3.73;3.43;;;28.60;30.20;26.70;95717.00;;;;5038737;28;20271;-82
2022/04/21 10:40:05;;;;;;;3.23;3.03;;;28.50;30.00;26.60;95721.00;;;;5047508;28;20718;-82
2022/04/21 10:42:57;;;;;;;3.80;3.50;;;28.30;30.30;26.60;95710.00;;;;5058012;28;20221;-82
2022/04/21 10:45:27;;;;;;;3.10;2.90;;;28.20;30.10;26.50;95711.00;;;;5045134;28;20216;-82
2022/04/21 10:48:07;;;;;;;3.43;3.13;;;28.10;30.90;26.50;95706.00;;;;5037215;28;20466;-82
2022/04/21 10:50:37;;;;;;;3.30;3.10;;;27.90;30.50;26.40;95706.00;;;;5037487;28;20221;-82
2022/04/21 10:58:53;;;;;;;3.87;3.57;;;27.00;30.00;25.80;95685.00;;;;5041998;28;20199;-82
2022/04/21 11:01:38;;;;;;;3.20;3.00;;;26.50;30.00;25.60;95690.00;;;;5058382;28;20251;-81
2022/04/21 11:04:21;;;;;;;2.70;2.57;;;26.20;30.00;25.40;95692.00;;;;5059701;28;20200;-82
2022/04/21 11:06:51;;;;;;;3.40;3.20;;;25.80;30.20;25.10;95684.00;;;;5059016;28;20668;-82
2022/04/21 11:09:44;;;;;;;3.50;3.17;;;25.40;30.20;24.80;95678.00;;;;5054999;28;20217;-82
2022/04/21 11:12:17;;;;;;;3.53;3.27;;;25.10;30.40;24.60;95671.00;;;;5039159;28;20222;-82
2022/04/21 11:14:45;;;;;;;3.50;3.20;;;24.70;31.00;24.30;95674.00;;;;5047133;28;20202;-82
2022/04/21 11:17:12;;;;;;;3.60;3.30;;;24.40;31.40;24.10;95669.00;;;;5053842;28;20672;-82
2022/04/21 11:19:44;;;;;;;3.00;2.73;;;24.10;30.60;23.80;95666.00;;;;5055891;28;20211;-84
2022/04/21 11:22:15;;;;;;;3.33;3.03;;;23.80;30.00;23.60;95666.00;;;;5059215;28;20224;-82
2022/04/21 11:25:04;;;;;;;3.00;2.80;;;23.60;30.50;23.40;95666.00;;;;5060963;28;20658;-82
2022/04/21 11:27:37;;;;;;;3.53;3.20;;;23.30;31.10;23.10;95658.00;;;;5055893;28;20662;-82
2022/04/21 11:30:08;;;;;;;2.73;2.53;;;23.00;31.70;23.00;95649.00;;;;5041704;28;20221;-82
2022/04/21 11:32:35;;;;;;;5.00;3.10;;;22.80;32.20;22.80;95656.00;;;;5042111;28;20778;-82
2022/04/21 11:35:06;;;;;;;2.83;2.50;;;22.60;32.70;22.70;95647.00;;;;5042387;28;20197;-82
2022/04/21 11:37:57;;;;;;;3.20;2.97;;;22.50;32.60;22.50;95654.00;;;;5046672;28;20210;-82
2022/04/21 11:40:35;;;;;;;3.43;3.13;;;22.30;32.30;22.40;95649.00;;;;5048943;28;20207;-81
2022/04/21 11:43:06;;;;;;;3.70;3.33;;;22.10;33.20;22.30;95659.00;;;;5039643;28;20299;-79
2022/04/21 11:45:36;;;;;;;3.63;3.33;;;22.00;33.20;22.10;95661.00;;;;5048036;28;20574;-81
2022/04/21 11:48:12;;;;;;;3.80;3.10;;;21.80;33.20;22.00;95646.00;;;;5039878;28;20274;-79
2022/04/21 11:50:44;;;;;;;3.67;3.37;;;21.70;33.40;21.80;95643.00;;;;5036291;28;20213;-80
2022/04/21 11:53:18;;;;;;;3.77;3.47;;;21.50;33.20;21.70;95645.00;;;;5035085;28;20198;-79
2022/04/21 11:55:47;;;;;;;3.87;3.50;;;21.40;33.50;21.60;95642.00;;;;5035151;28;20676;-80
2022/04/21 11:58:26;;;;;;;3.17;2.97;;;21.30;34.20;21.50;95633.00;;;;5052210;28;20214;-79
2022/04/21 12:06:32;;;;;;;3.50;3.20;;;21.00;35.10;21.40;95623.00;;;;5045638;28;20251;-79